Time;durP1;ratioP1;P1;durP2;ratioP2;P2;SDS_P1;SDS_P2;PMS_P1;PMS_P2;Temp;Humidity;BMP_temperature;BMP_pressure;BME280_temperature;BME280_humidity;BME280_pressure;Samples;Min_cycle;Max_cycle;Signal;HPM_P1;HPM_P2
2023/08/15 00:02:27;;;;;;;4.57;3.15;;;;;;;23.54;44.64;100899.91;5110844;28;20485;-72
2023/08/15 00:04:56;;;;;;;4.65;3.20;;;;;;;23.54;44.63;100891.53;5111174;28;20131;-71
2023/08/15 00:07:44;;;;;;;4.70;3.10;;;;;;;23.48;44.61;100880.38;5110250;28;20048;-71
2023/08/15 00:10:12;;;;;;;5.10;3.20;;;;;;;23.47;44.86;100882.31;5072582;28;20051;-71
2023/08/15 00:12:40;;;;;;;3.92;3.25;;;;;;;23.43;44.69;100882.97;5109371;28;20043;-71
2023/08/15 00:15:09;;;;;;;4.45;3.10;;;;;;;23.42;44.79;100875.66;5105111;28;20355;-71
2023/08/15 00:17:37;;;;;;;4.43;3.17;;;;;;;23.38;44.82;100876.13;5100003;28;20070;-71
2023/08/15 00:20:08;;;;;;;4.85;3.40;;;;;;;23.38;45.00;100872.47;5102592;28;20044;-71
2023/08/15 00:22:36;;;;;;;4.15;3.33;;;;;;;23.32;45.02;100868.63;5083753;28;20070;-71
2023/08/15 00:25:04;;;;;;;5.15;3.03;;;;;;;23.30;44.91;100872.69;5105084;28;20043;-71
2023/08/15 00:27:32;;;;;;;4.85;3.65;;;;;;;23.27;45.21;100873.97;5083465;28;20123;-71
2023/08/15 00:30:00;;;;;;;5.78;3.40;;;;;;;23.25;44.99;100867.75;5086225;28;20127;-72
2023/08/15 00:32:31;;;;;;;4.65;3.53;;;;;;;23.20;45.15;100872.28;5091425;28;20035;-71
2023/08/15 00:34:59;;;;;;;3.85;3.10;;;;;;;23.19;45.33;100873.34;5092149;28;20051;-71
2023/08/15 00:37:28;;;;;;;5.18;3.50;;;;;;;23.17;45.44;100870.75;5091382;28;20497;-72
2023/08/15 00:39:56;;;;;;;4.45;3.13;;;;;;;23.13;45.43;100875.06;5110276;28;20575;-71
2023/08/15 00:42:25;;;;;;;5.18;3.42;;;;;;;23.10;45.26;100881.06;5083298;28;20039;-72
2023/08/15 00:44:53;;;;;;;4.53;3.30;;;;;;;23.07;45.35;100877.84;5091393;28;20040;-71
2023/08/15 00:47:23;;;;;;;5.38;3.05;;;;;;;23.05;45.52;100882.78;5091536;28;20039;-71
2023/08/15 00:49:53;;;;;;;5.30;3.58;;;;;;;23.05;45.69;100885.56;5091897;28;20055;-71
2023/08/15 00:52:21;;;;;;;5.40;3.72;;;;;;;23.01;45.86;100871.19;5108861;28;20473;-72
2023/08/15 00:54:52;;;;;;;5.78;3.58;;;;;;;23.03;45.75;100866.25;5110111;28;20411;-71
2023/08/15 00:57:21;;;;;;;5.47;3.85;;;;;;;22.99;45.95;100860.25;5090518;28;20075;-72
2023/08/15 00:59:49;;;;;;;3.90;2.88;;;;;;;22.99;46.09;100862.19;5108465;28;20218;-71
2023/08/15 01:02:17;;;;;;;4.40;3.15;;;;;;;22.98;45.74;100852.09;5075137;28;20036;-71
2023/08/15 01:04:45;;;;;;;5.38;3.70;;;;;;;22.97;45.80;100847.59;5095907;28;20533;-72
2023/08/15 01:07:13;;;;;;;5.00;3.47;;;;;;;22.96;45.61;100846.72;5110219;28;20067;-71
2023/08/15 01:09:42;;;;;;;5.22;3.60;;;;;;;22.94;45.80;100839.63;5109707;28;20542;-71
2023/08/15 01:12:20;;;;;;;5.85;3.38;;;;;;;22.94;46.11;100826.53;5090846;28;20138;-71
2023/08/15 01:14:52;;;;;;;5.05;3.63;;;;;;;22.91;45.91;100823.34;5090936;28;20333;-71
2023/08/15 01:17:31;;;;;;;4.78;3.33;;;;;;;22.89;46.04;100825.47;5109821;28;20047;-71
2023/08/15 01:20:06;;;;;;;6.40;3.72;;;;;;;22.86;45.95;100825.91;5091402;28;20547;-71
2023/08/15 01:22:41;;;;;;;5.07;3.58;;;;;;;22.83;46.03;100821.63;5109224;28;20043;-71
2023/08/15 01:25:10;;;;;;;4.75;3.40;;;;;;;22.80;45.93;100822.06;5089970;28;20066;-71
2023/08/15 01:27:38;;;;;;;4.95;3.47;;;;;;;22.76;45.96;100822.69;5091110;28;20465;-71
2023/08/15 01:30:08;;;;;;;5.53;3.60;;;;;;;22.76;46.20;100833.84;5090809;28;20040;-71
2023/08/15 01:32:42;;;;;;;4.90;3.33;;;;;;;22.74;46.58;100834.09;5109119;28;20055;-71
2023/08/15 01:35:16;;;;;;;5.57;3.38;;;;;;;22.74;46.37;100833.22;5090984;28;20044;-71
2023/08/15 01:37:45;;;;;;;4.05;3.08;;;;;;;22.72;46.31;100839.00;5109233;28;20100;-71
2023/08/15 01:40:17;;;;;;;5.50;3.10;;;;;;;22.73;46.72;100831.50;5090813;28;20104;-71
2023/08/15 01:42:47;;;;;;;5.57;3.72;;;;;;;22.71;46.67;100840.09;5077917;28;20566;-71
2023/08/15 01:45:15;;;;;;;5.25;3.42;;;;;;;22.72;46.69;100836.22;5080868;28;20130;-71
2023/08/15 01:47:43;;;;;;;4.78;3.10;;;;;;;22.71;46.45;100837.28;5091010;28;20043;-71
2023/08/15 01:50:11;;;;;;;5.07;3.25;;;;;;;22.72;46.61;100844.59;5089327;28;20043;-72
2023/08/15 01:52:39;;;;;;;3.80;2.88;;;;;;;22.72;46.43;100847.38;5109601;28;20043;-72
2023/08/15 01:55:07;;;;;;;4.28;3.00;;;;;;;22.74;46.76;100850.81;5108719;28;20047;-71
2023/08/15 01:57:36;;;;;;;4.75;3.30;;;;;;;22.77;46.69;100853.16;5090178;28;20043;-71
2023/08/15 02:00:05;;;;;;;5.13;3.17;;;;;;;22.77;46.92;100860.69;5089986;28;20104;-71
2023/08/15 02:02:42;;;;;;;5.00;3.33;;;;;;;22.78;47.06;100859.59;5100634;28;20035;-71
2023/08/15 02:05:13;;;;;;;4.65;3.45;;;;;;;22.80;46.82;100865.84;5107763;28;20164;-71
2023/08/15 02:07:41;;;;;;;5.93;3.50;;;;;;;22.81;46.78;100884.31;5108450;28;20088;-71
2023/08/15 02:10:09;;;;;;;5.65;3.33;;;;;;;22.82;46.73;100895.25;5091188;28;20604;-71
2023/08/15 02:12:39;;;;;;;5.35;3.00;;;;;;;22.85;46.92;100900.38;5090237;28;20533;-72
2023/08/15 02:15:08;;;;;;;4.13;3.00;;;;;;;22.86;46.97;100895.66;5108687;28;20127;-72
2023/08/15 02:17:36;;;;;;;4.30;3.33;;;;;;;22.85;46.94;100894.81;5089797;28;20039;-72
2023/08/15 02:20:04;;;;;;;5.80;2.97;;;;;;;22.87;46.93;100891.81;5109145;28;20085;-71
2023/08/15 02:22:32;;;;;;;4.43;2.70;;;;;;;22.88;47.08;100890.72;5108963;28;20525;-71
2023/08/15 02:25:00;;;;;;;4.15;2.60;;;;;;;22.89;46.96;100893.31;5090016;28;20524;-72
2023/08/15 02:27:28;;;;;;;4.05;3.03;;;;;;;22.91;46.80;100884.75;5089472;28;20523;-71
2023/08/15 02:29:57;;;;;;;4.20;2.88;;;;;;;22.94;46.81;100885.16;5108544;28;20557;-71
2023/08/15 02:32:25;;;;;;;5.18;2.80;;;;;;;22.93;46.91;100893.72;5108352;28;20052;-72
2023/08/15 02:34:53;;;;;;;4.03;3.05;;;;;;;22.94;46.84;100893.53;5108680;28;20142;-72
2023/08/15 02:37:23;;;;;;;4.43;2.88;;;;;;;22.95;47.01;100902.75;5090696;28;20073;-71
2023/08/15 02:39:51;;;;;;;4.63;2.90;;;;;;;22.96;47.00;100910.06;5108480;28;20169;-71
2023/08/15 02:42:19;;;;;;;5.35;3.10;;;;;;;22.97;46.80;100909.00;5107953;28;20132;-71
2023/08/15 02:44:47;;;;;;;3.90;2.97;;;;;;;22.98;46.88;100905.13;5089940;28;20123;-72
2023/08/15 02:47:16;;;;;;;5.43;3.33;;;;;;;23.00;47.06;100900.19;5107672;28;20054;-72
2023/08/15 02:49:44;;;;;;;4.72;3.30;;;;;;;22.98;46.97;100880.00;5089342;28;20075;-72
2023/08/15 02:52:12;;;;;;;4.75;3.10;;;;;;;22.98;47.28;100860.47;5108419;28;20122;-72
2023/08/15 02:54:40;;;;;;;5.00;3.15;;;;;;;22.98;47.44;100864.13;5090118;28;20046;-72
2023/08/15 02:57:08;;;;;;;4.22;2.92;;;;;;;22.97;47.49;100876.34;5087552;28;20529;-71
2023/08/15 02:59:35;;;;;;;4.25;3.08;;;;;;;22.97;47.47;100864.31;5089931;28;20130;-72
2023/08/15 03:02:03;;;;;;;4.05;2.95;;;;;;;22.98;47.66;100863.25;5109784;28;20225;-71
2023/08/15 03:04:33;;;;;;;4.55;3.20;;;;;;;23.00;47.75;100883.44;5112459;28;20486;-71
2023/08/15 03:07:00;;;;;;;4.57;3.10;;;;;;;22.97;47.65;100887.53;5111870;28;20452;-71
2023/08/15 03:09:28;;;;;;;4.18;2.83;;;;;;;22.98;47.78;100893.97;5086099;28;20683;-71
2023/08/15 03:11:56;;;;;;;4.00;3.15;;;;;;;22.98;47.97;100902.34;5112123;28;20063;-72
2023/08/15 03:14:24;;;;;;;5.47;3.25;;;;;;;22.98;47.79;100910.72;5111702;28;20052;-72
2023/08/15 03:16:53;;;;;;;4.35;3.20;;;;;;;22.97;47.87;100911.78;5081784;28;20126;-72
2023/08/15 03:19:20;;;;;;;4.65;3.03;;;;;;;22.96;47.97;100922.09;5109254;28;20123;-72
2023/08/15 03:21:50;;;;;;;4.65;3.30;;;;;;;22.97;47.96;100928.53;5087703;28;20300;-73
2023/08/15 03:24:18;;;;;;;4.90;2.90;;;;;;;22.92;48.27;100923.56;5088349;28;20055;-73
2023/08/15 03:26:46;;;;;;;4.50;3.15;;;;;;;22.88;48.33;100913.94;5103151;27;20123;-73
2023/08/15 03:29:13;;;;;;;5.30;3.03;;;;;;;22.85;48.27;100902.31;5091776;28;20479;-73
2023/08/15 03:31:42;;;;;;;5.50;3.17;;;;;;;22.82;48.39;100897.19;5089816;28;20047;-73
2023/08/15 03:34:10;;;;;;;4.82;2.88;;;;;;;22.79;48.77;100881.72;5090796;28;20384;-73
2023/08/15 03:36:38;;;;;;;5.38;2.95;;;;;;;22.76;49.28;100868.19;5089714;28;20089;-73
2023/08/15 03:39:07;;;;;;;5.20;3.20;;;;;;;22.76;49.40;100854.22;5081570;28;20059;-73
2023/08/15 03:41:35;;;;;;;4.05;2.83;;;;;;;22.71;49.34;100823.34;5087569;28;20143;-73
2023/08/15 03:44:03;;;;;;;4.28;2.83;;;;;;;22.70;49.29;100834.72;5086351;28;20393;-73
2023/08/15 03:46:31;;;;;;;4.28;2.80;;;;;;;22.66;49.69;100841.81;5086905;28;20467;-74
2023/08/15 03:49:00;;;;;;;3.20;2.45;;;;;;;22.64;49.60;100839.22;5091164;28;20047;-73
2023/08/15 03:51:28;;;;;;;5.10;2.75;;;;;;;22.59;49.86;100836.22;5091565;28;20052;-73
2023/08/15 03:54:15;;;;;;;4.10;2.90;;;;;;;22.56;49.75;100864.53;5092053;28;20486;-72
2023/08/15 03:56:44;;;;;;;5.93;3.03;;;;;;;22.49;49.60;100864.50;5086865;28;20412;-73
2023/08/15 03:59:11;;;;;;;5.07;3.10;;;;;;;22.46;49.69;100880.78;5091725;28;20057;-72
2023/08/15 04:01:39;;;;;;;4.72;2.83;;;;;;;22.41;49.70;100887.03;5090725;28;20054;-75
2023/08/15 04:04:07;;;;;;;5.30;3.03;;;;;;;22.37;49.79;100873.69;5092909;28;20047;-72
2023/08/15 04:06:35;;;;;;;6.32;2.88;;;;;;;22.32;50.07;100879.06;5111699;28;20548;-72
2023/08/15 04:09:04;;;;;;;4.60;2.55;;;;;;;22.28;50.04;100873.03;5092776;28;20074;-72
2023/08/15 04:11:33;;;;;;;4.75;2.70;;;;;;;22.25;50.18;100879.91;5111239;28;20042;-71
2023/08/15 04:14:01;;;;;;;4.25;2.65;;;;;;;22.20;50.29;100889.97;5108790;28;20499;-72
2023/08/15 04:16:29;;;;;;;3.83;2.60;;;;;;;22.16;50.20;100900.69;5091523;28;20400;-72
2023/08/15 04:18:57;;;;;;;4.93;2.60;;;;;;;22.14;50.34;100927.03;5091168;28;20064;-72
2023/08/15 04:21:25;;;;;;;4.70;2.70;;;;;;;22.10;50.14;100937.72;5090774;28;20395;-72
2023/08/15 04:23:53;;;;;;;5.13;2.78;;;;;;;22.08;50.57;100941.81;5090211;28;20047;-72
2023/08/15 04:26:22;;;;;;;6.00;2.83;;;;;;;22.04;50.68;100952.50;5090972;28;20485;-72
2023/08/15 04:28:51;;;;;;;4.70;2.95;;;;;;;22.02;50.28;100965.78;5091697;28;20520;-72
2023/08/15 04:31:23;;;;;;;4.60;2.70;;;;;;;21.97;50.53;100982.28;5095034;28;20415;-72
2023/08/15 04:33:52;;;;;;;4.47;3.03;;;;;;;21.94;50.75;100993.81;5090764;28;20445;-71
2023/08/15 04:36:20;;;;;;;5.82;2.92;;;;;;;21.91;50.92;101002.63;5090717;28;20131;-72
2023/08/15 04:38:48;;;;;;;4.75;2.42;;;;;;;21.89;50.84;101008.34;5090630;28;20039;-72
2023/08/15 04:41:17;;;;;;;5.03;2.80;;;;;;;21.87;50.78;101015.19;5090670;28;20059;-72
2023/08/15 04:43:47;;;;;;;4.95;2.80;;;;;;;21.86;51.02;101007.88;5095450;28;20035;-71
2023/08/15 04:46:24;;;;;;;5.38;2.80;;;;;;;21.87;51.79;100990.13;5114409;28;20358;-72
2023/08/15 04:48:52;;;;;;;6.20;3.10;;;;;;;21.83;50.95;100986.03;5071384;28;20048;-72
2023/08/15 04:51:20;;;;;;;5.53;3.58;;;;;;;21.82;51.34;100998.25;5088130;28;20051;-72
2023/08/15 04:53:49;;;;;;;5.95;3.08;;;;;;;21.81;51.47;100990.94;5108085;28;20047;-72
2023/08/15 04:56:18;;;;;;;4.97;3.30;;;;;;;21.80;51.42;100990.09;5090227;28;20051;-71
2023/08/15 04:58:46;;;;;;;6.05;3.63;;;;;;;21.78;51.71;100992.19;5090079;28;20089;-71
2023/08/15 05:01:15;;;;;;;4.97;3.30;;;;;;;21.77;51.76;100989.63;5090856;28;20043;-72
2023/08/15 05:03:45;;;;;;;5.63;3.13;;;;;;;21.78;52.10;100994.13;5089230;28;20096;-72
2023/08/15 05:06:12;;;;;;;5.13;3.13;;;;;;;21.76;52.24;100996.28;5089310;28;20067;-72
2023/08/15 05:08:40;;;;;;;4.88;3.13;;;;;;;21.76;52.22;101024.13;5088565;28;20116;-72
2023/08/15 05:11:09;;;;;;;6.05;3.38;;;;;;;21.75;52.34;101002.91;5089814;28;20407;-72
2023/08/15 05:13:38;;;;;;;6.32;3.50;;;;;;;21.74;52.28;101009.53;5104923;28;20422;-72
2023/08/15 05:16:06;;;;;;;5.18;3.25;;;;;;;21.73;52.52;101000.31;5090008;28;20139;-72
2023/08/15 05:18:34;;;;;;;5.40;3.08;;;;;;;21.73;52.55;101008.69;5089478;28;20501;-71
2023/08/15 05:21:13;;;;;;;6.20;3.25;;;;;;;21.76;53.67;101030.56;5110354;28;20063;-72
2023/08/15 05:23:42;;;;;;;4.72;3.10;;;;;;;21.72;52.83;101026.47;5093664;28;20074;-72
2023/08/15 05:26:13;;;;;;;5.20;3.40;;;;;;;21.73;52.82;101017.03;5093770;28;20521;-72
2023/08/15 05:28:42;;;;;;;4.63;2.97;;;;;;;21.71;52.67;101012.72;5093805;28;20078;-73
2023/08/15 05:31:15;;;;;;;4.88;3.17;;;;;;;21.71;52.49;101016.38;5086153;28;20047;-73
2023/08/15 05:33:43;;;;;;;4.60;2.88;;;;;;;21.72;52.68;101011.66;5109752;28;20036;-73
2023/08/15 05:36:12;;;;;;;4.97;3.00;;;;;;;21.75;52.73;101025.19;5091054;28;20047;-73
2023/08/15 05:38:40;;;;;;;5.03;2.97;;;;;;;21.72;52.64;101034.81;5109484;28;20484;-73
2023/08/15 05:41:08;;;;;;;4.70;2.88;;;;;;;21.72;52.33;101045.97;5089694;28;20624;-73
2023/08/15 05:43:36;;;;;;;4.88;3.00;;;;;;;21.73;52.04;101058.81;5104809;28;20106;-76
2023/08/15 05:46:04;;;;;;;4.95;3.03;;;;;;;21.72;52.55;101062.66;5063511;28;20056;-75
2023/08/15 05:48:32;;;;;;;5.97;3.05;;;;;;;21.72;52.13;101051.53;5086606;28;20038;-66
2023/08/15 05:51:00;;;;;;;7.57;3.22;;;;;;;21.71;52.25;101052.59;5099587;28;20050;-66
2023/08/15 05:53:31;;;;;;;5.85;3.03;;;;;;;21.74;51.77;101062.47;5096488;28;20529;-68
2023/08/15 05:55:59;;;;;;;6.38;3.17;;;;;;;21.71;52.29;101052.59;5087570;28;20050;-67
2023/08/15 05:58:27;;;;;;;5.57;3.00;;;;;;;21.71;51.89;101060.09;5078171;28;20093;-66
2023/08/15 06:00:55;;;;;;;5.15;3.20;;;;;;;21.70;52.03;101059.22;5095510;28;20048;-67
2023/08/15 06:03:23;;;;;;;4.75;3.00;;;;;;;21.70;52.08;101062.00;5104571;28;20286;-65
2023/08/15 06:06:11;;;;;;;4.13;2.83;;;;;;;21.67;51.90;101065.22;5102748;28;20047;-66
2023/08/15 06:08:40;;;;;;;4.72;3.13;;;;;;;21.70;51.91;101066.72;5090534;28;20414;-66
2023/08/15 06:11:08;;;;;;;5.47;3.15;;;;;;;21.66;52.04;101071.84;5109126;28;20514;-66
2023/08/15 06:13:36;;;;;;;4.40;3.17;;;;;;;21.66;51.81;101068.19;5109162;28;20044;-66
2023/08/15 06:16:04;;;;;;;4.97;3.00;;;;;;;21.66;51.94;101070.97;5109625;28;20540;-67
2023/08/15 06:18:34;;;;;;;4.93;3.13;;;;;;;21.65;52.04;101084.03;5109217;28;20521;-67
2023/08/15 06:21:01;;;;;;;6.00;2.92;;;;;;;21.64;51.88;101084.25;5109282;28;20135;-65
2023/08/15 06:23:29;;;;;;;4.75;3.08;;;;;;;21.63;51.84;101079.72;5108302;28;20040;-65
2023/08/15 06:25:59;;;;;;;4.53;3.03;;;;;;;21.64;52.15;101085.09;5090517;28;20058;-65
2023/08/15 06:28:27;;;;;;;5.10;3.15;;;;;;;21.62;51.83;101081.66;5109597;28;20036;-66
2023/08/15 06:30:55;;;;;;;5.65;3.33;;;;;;;21.60;52.04;101081.03;5109115;28;20040;-67
2023/08/15 06:33:23;;;;;;;5.68;3.40;;;;;;;21.60;52.32;101071.81;5108241;28;20040;-66
2023/08/15 06:35:51;;;;;;;5.43;3.38;;;;;;;21.59;51.97;101068.16;5109728;28;20043;-66
2023/08/15 06:38:19;;;;;;;4.68;3.03;;;;;;;21.59;51.93;101078.44;5113160;28;20050;-65
2023/08/15 06:40:47;;;;;;;4.95;3.35;;;;;;;21.58;51.80;101077.56;5112454;28;20051;-69
2023/08/15 06:43:16;;;;;;;6.18;3.30;;;;;;;21.60;51.94;101085.72;5112726;28;20423;-67
2023/08/15 06:45:44;;;;;;;5.90;3.47;;;;;;;21.57;51.79;101095.34;5110372;28;20048;-66
2023/08/15 06:48:12;;;;;;;5.60;3.80;;;;;;;21.57;51.76;101098.13;5091594;28;20040;-69
2023/08/15 06:50:40;;;;;;;5.20;3.70;;;;;;;21.58;52.02;101104.56;5098330;28;20413;-64
2023/08/15 06:53:08;;;;;;;6.03;3.33;;;;;;;21.56;51.90;101104.75;5110869;28;20647;-66
2023/08/15 06:55:37;;;;;;;5.07;3.85;;;;;;;21.57;52.09;101112.03;5113446;28;20122;-66
2023/08/15 06:58:05;;;;;;;5.60;3.45;;;;;;;21.57;52.38;101100.03;5112774;28;20063;-65
2023/08/15 07:00:35;;;;;;;5.18;3.45;;;;;;;21.60;52.03;101094.09;5094334;28;20139;-66
2023/08/15 07:03:03;;;;;;;5.47;3.40;;;;;;;21.56;52.09;101090.81;5125811;22;20089;-78
2023/08/15 07:05:31;;;;;;;5.50;3.53;;;;;;;21.56;51.64;101088.03;5095947;28;20040;-79
2023/08/15 07:07:59;;;;;;;4.57;2.92;;;;;;;21.56;51.92;101099.19;5089380;28;20041;-79
2023/08/15 07:10:27;;;;;;;4.85;3.10;;;;;;;21.56;51.91;101107.53;5074362;28;20044;-79
2023/08/15 07:12:55;;;;;;;6.50;3.40;;;;;;;21.57;52.32;101102.81;5077058;28;20068;-78
2023/08/15 07:15:23;;;;;;;5.30;2.97;;;;;;;21.57;52.18;101106.47;5076954;28;20085;-79
2023/08/15 07:17:52;;;;;;;5.07;3.15;;;;;;;21.60;52.15;101113.56;5074542;28;20044;-79
2023/08/15 07:20:20;;;;;;;5.25;3.15;;;;;;;21.58;51.53;101115.69;5108053;28;20051;-79
2023/08/15 07:22:48;;;;;;;4.05;2.65;;;;;;;21.57;51.37;101103.69;5109944;28;20406;-79
2023/08/15 07:25:16;;;;;;;4.10;2.40;;;;;;;21.58;51.00;101115.69;5077814;28;20084;-79
2023/08/15 07:27:44;;;;;;;4.10;2.03;;;;;;;21.57;50.33;101119.53;5073873;28;20063;-78
2023/08/15 07:30:13;;;;;;;3.47;2.10;;;;;;;21.57;50.44;101105.63;5069515;28;20082;-78
2023/08/15 07:32:41;;;;;;;4.22;1.90;;;;;;;21.56;50.84;101096.41;5072883;28;20116;-78
2023/08/15 07:35:10;;;;;;;3.80;2.10;;;;;;;21.58;50.49;101111.00;5076774;28;20041;-77
2023/08/15 07:37:39;;;;;;;3.65;1.75;;;;;;;21.56;50.60;101106.66;5088145;28;20046;-79
2023/08/15 07:40:09;;;;;;;4.05;1.90;;;;;;;21.57;50.77;101105.63;5095346;28;20153;-77
2023/08/15 07:42:38;;;;;;;4.38;1.92;;;;;;;21.55;50.74;101113.31;5073445;28;20124;-80
2023/08/15 07:45:07;;;;;;;4.03;2.08;;;;;;;21.56;50.79;101113.09;5109405;27;20051;-80
2023/08/15 09:43:57;;;;;;;2.13;1.17;;;;;;;22.51;48.27;101205.41;5086622;28;20455;-88
2023/08/15 09:46:27;;;;;;;2.03;1.02;;;;;;;22.62;48.48;101207.66;5086733;28;20113;-80
2023/08/15 09:48:55;;;;;;;2.25;1.10;;;;;;;22.72;48.34;101203.66;5083215;28;20040;-80
2023/08/15 10:58:38;;;;;;;2.50;1.08;;;;;;;24.89;43.34;101235.66;5086134;28;20075;-88
2023/08/15 11:01:11;;;;;;;3.28;1.17;;;;;;;24.97;43.69;101234.56;5063966;28;20052;-88
2023/08/15 11:03:40;;;;;;;3.13;1.20;;;;;;;25.07;43.19;101236.88;5085348;28;20047;-87
2023/08/15 11:06:09;;;;;;;2.92;1.30;;;;;;;25.14;42.70;101235.78;5068745;28;20044;-87
2023/08/15 11:14:57;;;;;;;3.45;1.50;;;;;;;25.33;40.75;101238.72;5084764;28;20043;-87
2023/08/15 11:17:26;;;;;;;3.20;1.50;;;;;;;25.39;41.34;101237.84;5104448;28;20071;-88
2023/08/15 11:19:55;;;;;;;2.70;1.40;;;;;;;25.42;41.14;101234.59;5064110;28;20135;-86
2023/08/15 11:22:26;;;;;;;4.00;1.40;;;;;;;25.45;41.20;101237.81;5104182;28;20044;-86
2023/08/15 11:24:55;;;;;;;3.83;1.42;;;;;;;25.45;41.16;101236.94;5074338;28;20044;-87
2023/08/15 11:27:24;;;;;;;2.65;1.45;;;;;;;25.51;40.71;101247.28;5074272;28;20039;-87
2023/08/15 11:29:57;;;;;;;4.65;1.52;;;;;;;25.56;39.56;101250.25;5077003;28;20043;-87
2023/08/15 11:32:42;;;;;;;;;;;;;;;;;;;;;
2023/08/15 11:35:53;;;;;;;2.50;1.33;;;;;;;25.55;40.08;101249.44;5092327;28;20089;-88
2023/08/15 11:38:22;;;;;;;3.97;1.80;;;;;;;25.59;39.91;101261.91;5099445;28;20044;-86
2023/08/15 11:40:53;;;;;;;2.63;1.40;;;;;;;25.63;40.37;101262.31;5074382;28;20471;-86
2023/08/15 11:43:22;;;;;;;2.63;1.50;;;;;;;25.62;40.53;101269.88;5074979;28;20048;-86
2023/08/15 11:45:50;;;;;;;2.15;1.40;;;;;;;25.65;39.98;101268.53;5105718;28;20044;-87
2023/08/15 11:48:20;;;;;;;3.58;1.55;;;;;;;25.69;39.28;101272.63;5103742;28;20036;-86
2023/08/15 11:50:52;;;;;;;4.05;1.67;;;;;;;25.70;39.70;101267.88;5074356;28;20052;-87
2023/08/15 11:53:20;;;;;;;3.00;1.20;;;;;;;25.68;39.36;101264.44;5109961;27;20036;-87
2023/08/15 11:55:51;;;;;;;3.88;1.48;;;;;;;25.72;39.19;101265.72;5074349;28;20067;-87
2023/08/15 11:58:31;;;;;;;3.65;1.52;;;;;;;25.75;38.56;101266.13;5109324;28;20040;-86
2023/08/15 12:01:02;;;;;;;4.07;1.70;;;;;;;25.76;38.97;101264.19;5072384;28;20124;-86
2023/08/15 12:03:34;;;;;;;2.65;1.42;;;;;;;25.78;38.82;101268.47;5069273;28;20420;-86
2023/08/15 12:06:06;;;;;;;2.95;1.60;;;;;;;25.78;38.99;101267.63;5073372;28;20055;-86
2023/08/15 12:08:34;;;;;;;;;;;;;;;25.50;39.72;101259.53;5075055;28;20046;-85
2023/08/15 12:11:08;;;;;;;3.60;1.20;;;;;;;25.81;38.61;101258.75;5109321;28;19952;-87
2023/08/15 12:13:38;;;;;;;2.00;1.20;;;;;;;25.86;38.57;101257.00;5075288;28;20048;-86
2023/08/15 12:16:08;;;;;;;2.42;1.20;;;;;;;25.87;37.69;101264.34;5109202;28;20068;-88
2023/08/15 12:18:43;;;;;;;2.03;1.08;;;;;;;25.89;37.38;101255.66;5069784;28;20041;-85
2023/08/15 12:21:14;;;;;;;3.03;1.25;;;;;;;25.89;37.58;101255.66;5073858;28;20397;-85
2023/08/15 12:23:43;;;;;;;2.50;1.10;;;;;;;25.89;37.86;101261.28;5073273;28;20044;-86
2023/08/15 12:26:12;;;;;;;2.40;1.27;;;;;;;25.92;37.81;101261.69;5070506;28;20044;-87
2023/08/15 12:28:40;;;;;;;3.42;1.40;;;;;;;25.94;37.27;101265.16;5073917;28;20406;-86
2023/08/15 12:31:11;;;;;;;2.90;1.50;;;;;;;25.95;37.02;101255.66;5071795;28;20040;-87
2023/08/15 12:33:43;;;;;;;2.93;1.50;;;;;;;25.95;36.60;101258.44;5073888;28;20059;-86
2023/08/15 12:36:17;;;;;;;2.65;1.27;;;;;;;25.95;36.55;101260.41;5077943;28;20043;-86
2023/08/15 12:38:46;;;;;;;2.83;1.20;;;;;;;25.96;36.31;101248.97;5070458;28;20040;-86
2023/08/15 12:41:17;;;;;;;;;;;;;;;25.66;37.08;101245.03;5071404;28;20044;-86
2023/08/15 12:43:45;;;;;;;3.15;1.13;;;;;;;25.93;36.45;101252.19;5072353;28;19924;-86
2023/08/15 12:46:14;;;;;;;3.30;1.30;;;;;;;25.99;36.41;101245.69;5070952;28;20040;-86
2023/08/15 12:48:44;;;;;;;3.10;1.40;;;;;;;26.01;36.21;101245.44;5070636;28;20053;-86
2023/08/15 12:51:14;;;;;;;2.50;1.40;;;;;;;25.99;36.37;101234.47;5073386;28;20044;-86
2023/08/15 12:53:42;;;;;;;2.72;1.33;;;;;;;25.99;36.46;101234.47;5073429;28;20047;-85
2023/08/15 12:56:10;;;;;;;3.05;1.50;;;;;;;25.98;36.25;101245.91;5075015;28;20109;-86
2023/08/15 12:58:38;;;;;;;3.22;1.50;;;;;;;25.98;36.00;101243.09;5076391;28;20499;-86
2023/08/15 13:01:06;;;;;;;3.38;1.52;;;;;;;25.98;36.28;101243.09;5070042;28;20052;-87
2023/08/15 13:03:34;;;;;;;3.67;1.60;;;;;;;25.96;36.03;101237.75;5072232;28;20096;-88
2023/08/15 13:06:04;;;;;;;3.25;1.60;;;;;;;25.98;36.16;101243.09;5072722;28;20086;-88
2023/08/15 13:08:32;;;;;;;3.40;1.70;;;;;;;25.96;36.12;101231.25;5078396;28;20065;-87
2023/08/15 13:11:00;;;;;;;2.53;1.30;;;;;;;25.94;36.06;101225.88;5072148;28;20060;-88
2023/08/15 13:13:28;;;;;;;3.30;1.40;;;;;;;25.93;35.90;101228.91;5073512;28;20059;-88
2023/08/15 13:15:56;;;;;;;3.38;1.30;;;;;;;25.94;36.17;101219.41;5072822;28;20043;-87
2023/08/15 13:18:25;;;;;;;3.10;1.55;;;;;;;25.92;36.13;101228.03;5069374;28;20094;-87
2023/08/15 13:20:53;;;;;;;3.17;1.67;;;;;;;25.92;36.13;101218.78;5074095;28;20036;-88
2023/08/15 13:23:23;;;;;;;2.97;1.55;;;;;;;25.93;36.00;101221.34;5070780;28;20522;-88
2023/08/15 13:47:16;;;;;;;3.00;1.38;;;;;;;25.73;36.21;101220.63;5093902;28;20096;-86
2023/08/15 13:50:05;;;;;;;3.95;1.88;;;;;;;25.73;35.98;101226.22;5072935;28;20036;-86
2023/08/15 13:52:36;;;;;;;3.70;1.95;;;;;;;25.75;36.04;101237.22;5072505;28;20052;-86
2023/08/15 13:55:06;;;;;;;4.55;1.88;;;;;;;25.76;35.88;101231.41;5078184;28;20054;-86
2023/08/15 13:57:34;;;;;;;3.35;1.90;;;;;;;25.76;36.13;101233.34;5069123;28;20052;-86
2023/08/15 14:00:03;;;;;;;2.90;1.67;;;;;;;25.76;35.89;101227.72;5069742;28;20127;-86
2023/08/15 14:02:39;;;;;;;3.47;1.65;;;;;;;25.78;35.82;101225.56;5072766;28;20054;-87
2023/08/15 14:05:08;;;;;;;3.83;1.73;;;;;;;25.76;35.64;101225.78;5074229;28;20109;-86
2023/08/15 14:07:48;;;;;;;3.30;1.83;;;;;;;25.79;35.34;101219.75;5073037;28;20040;-86
2023/08/15 14:10:40;;;;;;;3.95;1.52;;;;;;;25.74;35.89;101224.28;5100627;28;20040;-87
2023/08/15 14:16:08;;;;;;;3.83;1.85;;;;;;;25.74;35.57;101219.53;5095601;28;20071;-85
2023/08/15 14:18:38;;;;;;;4.47;1.80;;;;;;;25.77;35.83;101226.66;5105010;28;20060;-89
2023/08/15 14:21:10;;;;;;;3.13;1.85;;;;;;;25.76;35.90;101219.31;5071462;28;20501;-87
2023/08/15 14:23:44;;;;;;;4.15;1.88;;;;;;;25.77;35.97;101221.91;5072691;28;20655;-87
2023/08/15 14:26:12;;;;;;;3.30;1.92;;;;;;;25.78;35.71;101220.81;5059761;28;20048;-86
2023/08/15 14:28:44;;;;;;;3.65;1.85;;;;;;;25.80;35.84;101229.84;5104982;28;20143;-86
2023/08/15 14:31:15;;;;;;;3.42;1.70;;;;;;;25.81;35.75;101225.97;5084587;28;20119;-88
2023/08/15 14:33:45;;;;;;;3.00;1.75;;;;;;;25.85;35.38;101226.38;5078456;28;20055;-86
2023/08/15 14:36:13;;;;;;;3.30;1.70;;;;;;;25.85;35.70;101220.78;5091923;28;20040;-80
2023/08/15 14:38:41;;;;;;;3.55;1.67;;;;;;;25.86;35.33;101222.50;5074882;28;20071;-80
2023/08/15 14:41:11;;;;;;;3.85;1.83;;;;;;;25.86;35.25;101219.69;5077450;28;20361;-79
2023/08/15 14:43:39;;;;;;;4.45;1.80;;;;;;;25.86;35.06;101219.69;5106007;28;20040;-81
2023/08/15 14:46:07;;;;;;;3.95;1.73;;;;;;;25.86;35.47;101219.69;5075304;28;20048;-80
2023/08/15 14:48:35;;;;;;;4.78;1.70;;;;;;;25.85;35.31;101217.97;5064597;28;20376;-80
2023/08/15 14:51:05;;;;;;;4.20;1.90;;;;;;;25.86;35.38;101217.75;5069288;28;20618;-82
2023/08/15 14:53:33;;;;;;;3.40;1.80;;;;;;;25.85;35.41;101212.34;5093112;28;20029;-80
2023/08/15 14:56:01;;;;;;;3.50;1.60;;;;;;;25.85;35.42;101199.19;5103463;28;20487;-81
2023/08/15 14:58:29;;;;;;;3.67;1.77;;;;;;;25.84;35.60;101207.84;5111503;27;20101;-80
2023/08/15 15:00:57;;;;;;;3.25;1.80;;;;;;;25.85;35.83;101216.03;5078623;28;20311;-80
2023/08/15 15:03:25;;;;;;;4.82;1.90;;;;;;;25.86;35.63;101216.88;5085376;28;20040;-81
2023/08/15 15:05:53;;;;;;;4.82;1.83;;;;;;;25.86;35.41;101208.47;5072262;28;20089;-81
2023/08/15 15:08:22;;;;;;;3.53;1.85;;;;;;;25.88;35.22;101212.78;5110973;27;20040;-81
2023/08/15 15:10:54;;;;;;;3.67;1.75;;;;;;;25.88;35.52;101209.09;5095786;28;20463;-81
2023/08/15 15:13:22;;;;;;;3.83;1.77;;;;;;;25.88;35.82;101203.50;5077241;28;20045;-81